Time;durP1;ratioP1;P1;durP2;ratioP2;P2;SDS_P1;SDS_P2;PMS_P1;PMS_P2;Temp;Humidity;BMP_temperature;BMP_pressure;BME280_temperature;BME280_humidity;BME280_pressure;Samples;Min_cycle;Max_cycle;Signal;HPM_P1;HPM_P2
2022/09/11 08:26:56;;;;;;;0.80;0.80;;;;;;;;;;10486576;28;20634;-54
2022/09/11 08:31:56;;;;;;;1.48;0.80;;;;;;;;;;10442226;28;20456;-55
2022/09/11 08:36:57;;;;;;;1.90;1.23;;;;;;;;;;10428370;28;20099;-55
2022/09/11 08:42:08;;;;;;;1.60;0.82;;;;;;;;;;10420076;28;20025;-57
2022/09/11 08:47:17;;;;;;;4.88;0.80;;;;;;;;;;10423105;28;20025;-55
2022/09/11 08:52:19;;;;;;;1.08;0.70;;;;;;;;;;10425164;28;20041;-55
2022/09/11 08:57:44;;;;;;;2.45;0.70;;;;;;;;;;10414274;28;20504;-56
2022/09/11 09:03:03;;;;;;;2.55;0.80;;;;;;;;;;10414136;28;20029;-51
2022/09/11 09:08:50;;;;;;;1.90;0.55;;;;;;;;;;10415097;28;20520;-55
2022/09/11 09:14:28;;;;;;;1.42;0.70;;;;;;;;;;10432356;28;20373;-52
2022/09/11 09:19:38;;;;;;;0.75;0.70;;;;;;;;;;10432371;28;20056;-51
2022/09/11 09:24:47;;;;;;;3.97;0.98;;;;;;;;;;10426802;28;20373;-57
2022/09/11 09:29:54;;;;;;;0.60;0.60;;;;;;;;;;10400994;28;20079;-57
2022/09/11 09:35:04;;;;;;;0.60;0.60;;;;;;;;;;10406757;28;20390;-56
2022/09/11 09:40:09;;;;;;;0.80;0.75;;;;;;;;;;10386227;28;20608;-57
2022/09/11 09:45:43;;;;;;;0.60;0.60;;;;;;;;;;10396814;28;20044;-54
2022/09/11 09:50:44;;;;;;;0.60;0.60;;;;;;;;;;10386807;28;20034;-55
2022/09/11 09:55:46;;;;;;;3.42;0.75;;;;;;;;;;10385371;28;20022;-56
2022/09/11 10:00:46;;;;;;;2.03;0.95;;;;;;;;;;10386126;28;20044;-52
2022/09/11 10:05:52;;;;;;;0.82;0.73;;;;;;;;;;10375855;28;20024;-52
2022/09/11 10:10:59;;;;;;;2.22;0.98;;;;;;;;;;10394240;28;20033;-49
2022/09/11 10:16:03;;;;;;;2.20;0.82;;;;;;;;;;10387631;28;20420;-56
2022/09/11 10:21:36;;;;;;;0.77;0.77;;;;;;;;;;10394205;28;20034;-51
2022/09/11 10:26:49;;;;;;;0.82;0.82;;;;;;;;;;10397719;28;20067;-56
2022/09/11 10:32:01;;;;;;;0.82;0.68;;;;;;;;;;10370849;28;20397;-52
2022/09/11 10:37:14;;;;;;;0.90;0.88;;;;;;;;;;10370360;28;20029;-54
2022/09/11 10:42:28;;;;;;;1.23;0.88;;;;;;;;;;10398278;28;20352;-54
2022/09/11 10:47:31;;;;;;;1.20;0.75;;;;;;;;;;10388921;28;20037;-53
2022/09/11 10:52:32;;;;;;;2.17;0.70;;;;;;;;;;10409648;28;20288;-54
2022/09/11 10:57:50;;;;;;;1.05;0.60;;;;;;;;;;10383640;28;20551;-52
2022/09/11 11:03:04;;;;;;;1.02;0.70;;;;;;;;;;10395235;28;20025;-56
2022/09/11 11:08:32;;;;;;;1.13;0.77;;;;;;;;;;10406073;28;20018;-50
2022/09/11 11:13:48;;;;;;;;;;;;;;;;;;10395260;28;20029;-56
2022/09/11 11:19:21;;;;;;;0.90;0.90;;;;;;;;;;10383468;28;19920;-57
2022/09/11 11:25:20;;;;;;;0.75;0.70;;;;;;;;;;10381499;28;20111;-55
2022/09/11 11:30:28;;;;;;;1.92;0.77;;;;;;;;;;10382761;28;20022;-50
2022/09/11 11:36:03;;;;;;;0.50;0.50;;;;;;;;;;10375094;28;20112;-56
2022/09/11 11:41:34;;;;;;;1.65;0.80;;;;;;;;;;10372798;28;20029;-57
2022/09/11 11:46:44;;;;;;;0.85;0.60;;;;;;;;;;10380418;28;20493;-57
2022/09/11 11:52:23;;;;;;;0.55;0.55;;;;;;;;;;10394805;28;20423;-56
2022/09/11 11:57:31;;;;;;;2.15;0.70;;;;;;;;;;10398060;28;20034;-57
2022/09/11 12:02:49;;;;;;;0.57;0.55;;;;;;;;;;10394992;28;20087;-58
2022/09/11 12:07:50;;;;;;;1.05;0.65;;;;;;;;;;10400425;28;20602;-57
2022/09/11 12:13:14;;;;;;;1.08;0.68;;;;;;;;;;10384449;28;20172;-58
2022/09/11 12:18:15;;;;;;;1.08;0.60;;;;;;;;;;10398861;28;20542;-58
2022/09/11 12:23:45;;;;;;;0.60;0.50;;;;;;;;;;10384727;28;20033;-58
2022/09/11 12:28:46;;;;;;;1.55;0.60;;;;;;;;;;10400826;28;20967;-58
2022/09/11 12:33:49;;;;;;;0.65;0.65;;;;;;;;;;10380570;28;20026;-57
2022/09/11 12:38:56;;;;;;;0.70;0.68;;;;;;;;;;10373148;28;20032;-57
2022/09/11 12:43:57;;;;;;;0.70;0.70;;;;;;;;;;10380356;28;20175;-57
2022/09/11 12:49:11;;;;;;;0.60;0.60;;;;;;;;;;10374414;28;20051;-57
2022/09/11 12:54:15;;;;;;;0.80;0.65;;;;;;;;;;10387007;28;20036;-58
2022/09/11 12:59:51;;;;;;;1.02;0.77;;;;;;;;;;10372206;28;20029;-56
2022/09/11 13:04:53;;;;;;;1.73;0.80;;;;;;;;;;10378420;28;20056;-53
2022/09/11 13:09:56;;;;;;;0.80;0.80;;;;;;;;;;10396025;28;20032;-56
2022/09/11 13:14:58;;;;;;;0.77;0.63;;;;;;;;;;10395161;28;20478;-56
2022/09/11 13:20:08;;;;;;;0.80;0.80;;;;;;;;;;10391170;28;20017;-55
2022/09/11 13:25:21;;;;;;;1.80;0.90;;;;;;;;;;10401314;28;20054;-54
2022/09/11 13:30:25;;;;;;;0.80;0.80;;;;;;;;;;10393124;28;20492;-52
2022/09/11 13:35:28;;;;;;;0.80;0.80;;;;;;;;;;10400284;28;20108;-50
2022/09/11 13:40:47;;;;;;;0.70;0.70;;;;;;;;;;10394438;28;20153;-56
2022/09/11 13:45:48;;;;;;;0.70;0.70;;;;;;;;;;10385217;28;20069;-53
2022/09/11 13:50:50;;;;;;;1.00;0.80;;;;;;;;;;10378840;28;20053;-57
2022/09/11 13:55:51;;;;;;;0.90;0.63;;;;;;;;;;10399623;28;20104;-52
2022/09/11 14:00:54;;;;;;;1.27;0.85;;;;;;;;;;10393958;28;20026;-52
2022/09/11 14:05:58;;;;;;;0.75;0.75;;;;;;;;;;10385413;28;20045;-52
2022/09/11 14:11:06;;;;;;;1.00;0.90;;;;;;;;;;10372124;28;20029;-51
2022/09/11 14:16:13;;;;;;;1.95;1.05;;;;;;;;;;10382191;28;20481;-55
2022/09/11 14:21:33;;;;;;;0.80;0.80;;;;;;;;;;10371840;28;20497;-53
2022/09/11 14:26:34;;;;;;;0.80;0.80;;;;;;;;;;10384336;28;20053;-53
2022/09/11 14:31:39;;;;;;;0.80;0.80;;;;;;;;;;10409902;28;20454;-56
2022/09/11 14:37:09;;;;;;;0.60;0.60;;;;;;;;;;10393485;28;20032;-53
2022/09/11 14:42:17;;;;;;;0.85;0.85;;;;;;;;;;10374312;28;20041;-51
2022/09/11 14:47:23;;;;;;;1.20;0.80;;;;;;;;;;10385825;28;20044;-52
2022/09/11 14:52:28;;;;;;;0.85;0.85;;;;;;;;;;10390278;28;20064;-56
2022/09/11 14:57:33;;;;;;;1.58;0.75;;;;;;;;;;10392265;28;20029;-57
2022/09/11 15:02:34;;;;;;;12.38;1.52;;;;;;;;;;10391741;28;20053;-56
2022/09/11 15:07:35;;;;;;;17.35;1.02;;;;;;;;;;10385577;28;20032;-55
2022/09/11 15:12:35;;;;;;;3.88;1.10;;;;;;;;;;10381631;28;20086;-55
2022/09/11 15:17:36;;;;;;;9.95;0.95;;;;;;;;;;10389573;28;20102;-56
2022/09/11 15:22:37;;;;;;;0.77;0.77;;;;;;;;;;10395099;28;20393;-55
2022/09/11 15:27:38;;;;;;;2.38;0.82;;;;;;;;;;10382908;28;20022;-57
2022/09/11 15:32:38;;;;;;;3.35;1.20;;;;;;;;;;10374207;28;20029;-56
2022/09/11 15:37:39;;;;;;;1.77;0.98;;;;;;;;;;10377805;28;20033;-55
2022/09/11 15:42:40;;;;;;;2.40;0.85;;;;;;;;;;10398908;28;20033;-53
2022/09/11 15:47:41;;;;;;;2.25;0.90;;;;;;;;;;10388189;28;20030;-56
2022/09/11 15:52:42;;;;;;;1.17;0.98;;;;;;;;;;10407462;28;20029;-54
2022/09/11 15:57:43;;;;;;;5.22;0.90;;;;;;;;;;10397053;28;20378;-56
2022/09/11 16:02:43;;;;;;;0.93;0.80;;;;;;;;;;10387646;28;20029;-51
2022/09/11 16:07:46;;;;;;;1.00;0.77;;;;;;;;;;10393991;28;20034;-49
2022/09/11 16:12:47;;;;;;;3.20;0.95;;;;;;;;;;10397929;28;20386;-54
2022/09/11 16:17:47;;;;;;;1.08;0.95;;;;;;;;;;10421017;28;20033;-56
2022/09/11 16:22:48;;;;;;;0.90;0.80;;;;;;;;;;10409240;28;20513;-51
2022/09/11 16:27:50;;;;;;;5.43;0.90;;;;;;;;;;10404921;28;20367;-51
2022/09/11 16:32:51;;;;;;;1.10;1.00;;;;;;;;;;10417408;28;20044;-51
2022/09/11 16:37:52;;;;;;;0.70;0.70;;;;;;;;;;10409113;28;20034;-52
2022/09/11 16:42:53;;;;;;;4.88;0.85;;;;;;;;;;10398617;28;20026;-49
2022/09/11 16:47:55;;;;;;;1.70;0.85;;;;;;;;;;10394782;28;20053;-55
2022/09/11 16:52:56;;;;;;;1.20;0.70;;;;;;;;;;10405862;28;20032;-56
2022/09/11 16:57:57;;;;;;;1.13;0.80;;;;;;;;;;10387186;28;20028;-56
2022/09/11 17:02:58;;;;;;;0.95;0.85;;;;;;;;;;10398371;28;20485;-55
2022/09/11 17:07:58;;;;;;;0.77;0.77;;;;;;;;;;10411443;28;20056;-55
2022/09/11 17:12:59;;;;;;;7.47;1.27;;;;;;;;;;10414078;28;20465;-56
2022/09/11 17:18:00;;;;;;;3.95;0.70;;;;;;;;;;10396139;28;20490;-57
2022/09/11 17:23:00;;;;;;;7.00;1.23;;;;;;;;;;10392870;28;20049;-57
2022/09/11 17:28:01;;;;;;;0.82;0.80;;;;;;;;;;10373771;28;20026;-57
2022/09/11 17:33:02;;;;;;;2.42;0.70;;;;;;;;;;10386775;28;20494;-54
2022/09/11 17:38:02;;;;;;;2.03;0.93;;;;;;;;;;10373096;28;20046;-54
2022/09/11 17:43:03;;;;;;;0.82;0.60;;;;;;;;;;10386336;28;20042;-57
2022/09/11 17:48:04;;;;;;;0.70;0.70;;;;;;;;;;10386799;28;20030;-57
2022/09/11 17:53:05;;;;;;;0.85;0.57;;;;;;;;;;10396819;28;20507;-53
2022/09/11 17:58:05;;;;;;;0.90;0.57;;;;;;;;;;10398752;28;20021;-56
2022/09/11 18:03:06;;;;;;;1.17;0.70;;;;;;;;;;10398589;28;20038;-59
2022/09/11 18:08:07;;;;;;;2.45;0.70;;;;;;;;;;10385076;28;20145;-57
2022/09/11 18:13:08;;;;;;;0.70;0.70;;;;;;;;;;10395102;28;20026;-59
2022/09/11 18:18:09;;;;;;;0.60;0.55;;;;;;;;;;10398919;28;20479;-58
2022/09/11 18:23:10;;;;;;;1.92;0.65;;;;;;;;;;10376980;28;20054;-58
2022/09/11 18:28:11;;;;;;;0.70;0.60;;;;;;;;;;10387393;28;20033;-58
2022/09/11 18:33:15;;;;;;;1.20;0.65;;;;;;;;;;10408644;28;20048;-58
2022/09/11 18:38:15;;;;;;;2.58;0.70;;;;;;;;;;10384276;28;20030;-57
2022/09/11 18:43:17;;;;;;;0.50;0.50;;;;;;;;;;10370446;28;20033;-58
2022/09/11 18:48:17;;;;;;;0.85;0.60;;;;;;;;;;10411208;28;20393;-56
2022/09/11 18:53:18;;;;;;;0.95;0.70;;;;;;;;;;10384303;28;20033;-57
2022/09/11 18:58:20;;;;;;;0.68;0.63;;;;;;;;;;10409579;28;20500;-57
2022/09/11 19:03:21;;;;;;;2.63;0.70;;;;;;;;;;10370809;28;20555;-57
2022/09/11 19:08:21;;;;;;;1.90;0.80;;;;;;;;;;10379782;28;20108;-57
2022/09/11 19:13:24;;;;;;;1.30;0.60;;;;;;;;;;10394435;28;20427;-57
2022/09/11 19:18:25;;;;;;;0.70;0.70;;;;;;;;;;10395933;28;20029;-58
2022/09/11 19:23:30;;;;;;;0.70;0.70;;;;;;;;;;10390531;28;20124;-58
2022/09/11 19:28:36;;;;;;;0.90;0.75;;;;;;;;;;10382526;28;20428;-57
2022/09/11 19:33:38;;;;;;;0.80;0.50;;;;;;;;;;10368563;28;20021;-57
2022/09/11 19:38:39;;;;;;;3.63;0.75;;;;;;;;;;10368413;28;20058;-55
2022/09/11 19:43:41;;;;;;;0.65;0.65;;;;;;;;;;10399399;28;20436;-57
2022/09/11 19:48:44;;;;;;;0.93;0.70;;;;;;;;;;10401616;28;20025;-54
2022/09/11 19:53:45;;;;;;;6.30;0.90;;;;;;;;;;10386926;28;20036;-50
2022/09/11 19:58:45;;;;;;;0.60;0.60;;;;;;;;;;10386821;28;20025;-51
2022/09/11 20:03:47;;;;;;;0.77;0.77;;;;;;;;;;10387333;28;20425;-54
2022/09/11 20:08:49;;;;;;;1.08;0.63;;;;;;;;;;10371918;28;20466;-58
2022/09/11 20:13:51;;;;;;;2.88;1.00;;;;;;;;;;10383004;28;20173;-56
2022/09/11 20:18:58;;;;;;;2.70;1.10;;;;;;;;;;10406762;28;20021;-56
2022/09/11 20:23:59;;;;;;;5.40;0.93;;;;;;;;;;10377142;28;20054;-54
2022/09/11 20:29:14;;;;;;;1.83;0.90;;;;;;;;;;10394332;28;20064;-54
2022/09/11 20:34:16;;;;;;;5.50;1.17;;;;;;;;;;10393048;28;20126;-58
2022/09/11 20:39:18;;;;;;;9.23;1.05;;;;;;;;;;10383346;28;20017;-55
2022/09/11 20:44:19;;;;;;;10.10;1.00;;;;;;;;;;10397682;28;20033;-57
2022/09/11 20:49:20;;;;;;;10.75;0.88;;;;;;;;;;10406241;28;20029;-56
2022/09/11 20:54:20;;;;;;;11.75;1.20;;;;;;;;;;10399692;28;20026;-54
2022/09/11 20:59:21;;;;;;;1.60;1.00;;;;;;;;;;10392838;28;20030;-55
2022/09/11 21:04:23;;;;;;;1.38;0.80;;;;;;;;;;10402660;28;20033;-56
2022/09/11 21:09:24;;;;;;;1.88;0.90;;;;;;;;;;10401840;28;20052;-52
2022/09/11 21:14:24;;;;;;;3.80;1.15;;;;;;;;;;10401056;28;20088;-55
2022/09/11 21:19:25;;;;;;;5.30;1.20;;;;;;;;;;10398326;28;20531;-55
2022/09/11 21:24:26;;;;;;;3.45;1.13;;;;;;;;;;10394486;28;20042;-54
2022/09/11 21:29:26;;;;;;;2.00;0.90;;;;;;;;;;10406362;28;20080;-54
2022/09/11 21:34:27;;;;;;;4.05;0.90;;;;;;;;;;10401883;28;20034;-56
2022/09/11 21:39:28;;;;;;;2.33;0.82;;;;;;;;;;10407084;28;20029;-56
2022/09/11 21:44:28;;;;;;;3.53;1.10;;;;;;;;;;10403247;28;20088;-54
2022/09/11 21:49:29;;;;;;;1.40;0.98;;;;;;;;;;10395466;28;20095;-54
2022/09/11 21:54:29;;;;;;;2.13;0.95;;;;;;;;;;10411807;28;20059;-54
2022/09/11 21:59:30;;;;;;;2.90;0.88;;;;;;;;;;10399343;28;20029;-54
2022/09/11 22:04:31;;;;;;;0.73;0.70;;;;;;;;;;10410045;28;20044;-57
2022/09/11 22:09:32;;;;;;;0.88;0.82;;;;;;;;;;10398984;28;20549;-56
2022/09/11 22:14:32;;;;;;;1.15;0.85;;;;;;;;;;10400980;28;20501;-56
2022/09/11 22:19:33;;;;;;;4.50;1.13;;;;;;;;;;10397241;28;20067;-57
2022/09/11 22:24:34;;;;;;;1.17;0.88;;;;;;;;;;10398873;28;20405;-57
2022/09/11 22:29:35;;;;;;;0.80;0.80;;;;;;;;;;10390371;28;20033;-58
2022/09/11 22:34:36;;;;;;;1.35;0.90;;;;;;;;;;10401627;28;20397;-58
2022/09/11 22:39:37;;;;;;;5.50;0.90;;;;;;;;;;10390381;28;20036;-56
2022/09/11 22:44:37;;;;;;;0.80;0.80;;;;;;;;;;10411275;28;20037;-58
2022/09/11 22:49:38;;;;;;;1.98;0.73;;;;;;;;;;10411451;28;20500;-57
2022/09/11 22:54:38;;;;;;;2.13;0.90;;;;;;;;;;10401231;28;20034;-54
2022/09/11 22:59:39;;;;;;;4.72;0.93;;;;;;;;;;10407168;28;20026;-56
2022/09/11 23:07:13;;;;;;;2.17;0.90;;;;;;;;;;10380527;28;20049;-57
2022/09/11 23:10:00;;;;;;;0.98;0.80;;;;;;;;;;10398704;28;20044;-57
2022/09/11 23:15:02;;;;;;;1.88;0.80;;;;;;;;;;10395260;28;20041;-55
2022/09/11 23:20:03;;;;;;;1.58;1.08;;;;;;;;;;10400855;28;20033;-58
2022/09/11 23:25:05;;;;;;;0.82;0.82;;;;;;;;;;10399489;28;20041;-57
2022/09/11 23:30:06;;;;;;;1.95;0.80;;;;;;;;;;10395872;28;20028;-57
2022/09/11 23:35:07;;;;;;;1.27;0.80;;;;;;;;;;10409794;28;20401;-56
2022/09/11 23:40:08;;;;;;;6.28;0.90;;;;;;;;;;10387776;28;20504;-51
2022/09/11 23:45:11;;;;;;;2.50;1.02;;;;;;;;;;10409107;28;20103;-55
2022/09/11 23:50:12;;;;;;;1.23;0.82;;;;;;;;;;10409039;28;20029;-56
2022/09/11 23:55:13;;;;;;;1.38;0.80;;;;;;;;;;10406412;28;20026;-56
